Flight Track Log - Related Links

Times and Time Zones

All times are in EDT time to prevent confusion due to time zone crossing. See the SWA554 flight status page for this flight to view local times or setup timezone preferences in your user account.

Time Position Orientation Groundspeed Altitude Reporting Facility
EDT Latitude Longitude Course Direction KTS MPH feet Rate Location/Type
Mon 05:16:40 PM 39.1500 -76.6500 96° East 145 167 1,300  Level Potomac TRACON
Mon 05:18:14 PM 39.1431 -76.5603 96° East 216 249 4,300 2,494 Climbing Washington Center
Mon 05:19:14 PM 39.1458 -76.4561 88° East 239 275 7,700 3,300 Climbing Washington Center
Mon 05:20:14 PM 39.1506 -76.3464 87° East 284 327 10,900 3,150 Climbing Washington Center
Mon 05:21:14 PM 39.1556 -76.2153 87° East 329 379 14,000 3,150 Climbing Washington Center
Mon 05:22:14 PM 39.1686 -76.0736 83° East 369 425 17,200 3,000 Climbing Washington Center
Mon 05:23:14 PM 39.1858 -75.9317 81° East 389 448 20,000 2,800 Climbing Washington Center
Mon 05:24:14 PM 39.2444 -75.8086 58° Northeast 395 455 22,800 2,637 Climbing Washington Center
Mon 05:26:16 PM 39.4275 -75.5794 44° Northeast 456 525 28,000 2,295 Climbing New York Center
Mon 05:27:17 PM 39.5136 -75.4642 46° Northeast 443 510 29,800 1,721 Climbing New York Center
Mon 05:28:18 PM 39.6036 -75.3489 45° Northeast 450 518 31,500 1,835 Climbing New York Center
Mon 05:29:18 PM 39.6917 -75.2278 47° Northeast 460 529 33,500 1,831 Climbing New York Center
Mon 05:30:16 PM 39.7686 -75.1164 48° Northeast 460 529 35,100 1,678 Climbing New York Center
Mon 05:31:16 PM 39.8547 -74.9892 49° Northeast 460 529 36,800 942 Climbing New York Center
Mon 05:32:17 PM 39.9467 -74.8594 47° Northeast 455 524 37,000 99 Climbing New York Center
Mon 05:33:17 PM 40.0378 -74.7564 41° Northeast 433 498 37,000  Level New York Center
Mon 05:34:18 PM 40.1433 -74.7189 15° North 416 479 37,000  Level New York Center
Mon 05:35:19 PM 40.2597 -74.6711 17° North 425 489 37,000  Level New York Center
Mon 05:36:16 PM 40.3756 -74.6342 14° North 430 495 37,000  Level New York Center
Mon 05:37:18 PM 40.4914 -74.5942 15° North 430 495 37,000  Level New York Center
Mon 05:38:19 PM 40.6072 -74.5542 15° North 430 495 37,000  Level New York Center
Mon 05:40:00 PM 40.8167 -74.4806 15° North 437 503 37,000  Level Boston Center
Mon 05:40:58 PM 40.9364 -74.4431 13° North 437 503 37,000  Level Boston Center
Mon 05:41:58 PM 41.0494 -74.4025 15° North 432 497 37,000  Level Boston Center
Mon 05:42:59 PM 41.1564 -74.3728 12° North 432 497 37,000  Level Boston Center
Mon 05:43:59 PM 41.2864 -74.3214 17° North 432 497 37,000  Level Boston Center
Mon 05:44:59 PM 41.4039 -74.2806 15° North 432 497 37,000 -198 Level Boston Center
Mon 05:46:00 PM 41.5211 -74.2394 15° North 432 497 36,600 -645 Descending Boston Center
Mon 05:47:00 PM 41.6258 -74.2064 13° North 432 497 35,700 -966 Descending Boston Center
Mon 05:47:58 PM 41.7475 -74.1625 15° North 432 497 34,700 -864 Descending Boston Center
Mon 05:48:58 PM 41.8397 -74.1344 13° North 432 497 34,000 -878 Descending Boston Center
Mon 05:50:01 PM 41.9683 -74.0317 31° Northeast 431 496 32,900 -1,050 Descending Boston Center
Mon 05:50:58 PM 42.0328 -73.8711 62° Northeast 437 503 31,900 -966 Descending Boston Center
Mon 05:51:59 PM 42.0994 -73.7106 61° Northeast 456 525 31,000 -984 Descending Boston Center
Mon 05:53:00 PM 42.1658 -73.5492 61° Northeast 480 552 29,900 -1,770 Descending Boston Center
Mon 05:54:01 PM 42.2111 -73.3764 70° East 485 558 27,400 -2,471 Descending Boston Center
Mon 05:54:59 PM 42.2394 -73.2083 77° East 471 542 25,000 -2,136 Descending Boston Center
Mon 05:55:59 PM 42.3031 -73.0436 62° Northeast 456 525 23,200 -1,388 Descending Boston Center
Mon 05:57:00 PM 42.3639 -72.9178 57° Northeast 450 518 22,200 -992 Descending Boston Center
Mon 05:58:00 PM 42.4250 -72.7806 59° Northeast 436 502 21,200 -1,300 Descending Boston Center
Mon 05:59:00 PM 42.4836 -72.6542 58° Northeast 411 473 19,600 -1,780 Descending Boston Center
Mon 05:59:58 PM 42.5483 -72.5247 56° Northeast 384 442 17,700 -1,780 Descending Boston Center
Mon 06:00:58 PM 42.5922 -72.4289 58° Northeast 379 436 16,100 -1,918 Descending Boston Center
Mon 06:02:00 PM 42.6544 -72.2906 59° Northeast 362 417 13,800 -2,100 Descending Boston Center
Mon 06:02:58 PM 42.7044 -72.1772 59° Northeast 355 409 11,900 -1,475 Descending Boston Center
Mon 06:03:58 PM 42.7164 -72.0500 83° East 337 388 10,900 -1,200 Descending Boston Center
Mon 06:04:58 PM 42.7244 -71.9314 85° East 325 374 9,500 -1,488 Descending Boston Center
Mon 06:05:59 PM 42.7322 -71.8153 85° East 319 367 7,900 -1,339 Descending Boston Center
Mon 06:06:59 PM 42.7378 -71.7022 86° East 306 352 6,800 -1,091 Descending Boston Center
Mon 06:08:00 PM 42.7453 -71.5947 85° East 288 331 5,700 -1,091 Descending Boston Center
Mon 06:09:00 PM 42.7508 -71.4928 86° East 280 322 4,600 -1,008 Descending Boston Center
Mon 06:09:59 PM 42.7603 -71.4022 82° East 252 290 3,700 -908 Descending Boston Center
Mon 06:10:59 PM 42.7956 -71.3706 33° Northeast 184 212 2,800 -942 Descending Boston Center
Mon 06:12:00 PM 42.8500 -71.3867 348° North 157 181 1,800 -850 Descending Boston Center
Mon 06:12:59 PM 42.8856 -71.4058 338° Northwest 151 174 1,100 -700 Descending Boston Center
Mon 06:14:00 PM 42.9169 -71.4253 336° Northwest 139 160 400 3,917 Descending Boston Center
Mon 06:15:00 PM 42.9589 -71.4500 337° Northwest 139 160 9,000 4,373 Climbing Boston Center
Mon 06:15:58 PM 42.9944 -71.4692 338° Northwest 139 160 9,000  Level Boston Center

Login

Don't have an account? Register now (free) for customized features, flight alerts, and more!